Time;durP1;ratioP1;P1;durP2;ratioP2;P2;SDS_P1;SDS_P2;PMS_P1;PMS_P2;Temp;Humidity;BMP_temperature;BMP_pressure;BME280_temperature;BME280_humidity;BME280_pressure;Samples;Min_cycle;Max_cycle;Signal;HPM_P1;HPM_P2
2022/11/02 00:01:28;;;;;;;1.05;0.80;;;13.60;99.90;;;;;;5106104;28;20024;-77
2022/11/02 00:03:54;;;;;;;;;;;13.60;99.90;;;;;;5106526;28;20028;-77
2022/11/02 00:06:20;;;;;;;5.00;2.03;;;13.60;99.90;;;;;;5106022;28;19911;-77
2022/11/02 00:08:46;;;;;;;2.45;1.65;;;13.50;99.90;;;;;;5107598;28;20047;-77
2022/11/02 00:11:12;;;;;;;6.38;1.65;;;13.50;99.90;;;;;;5105937;28;20031;-77
2022/11/02 00:13:37;;;;;;;10.65;2.70;;;13.40;99.90;;;;;;5095574;28;20085;-76
2022/11/02 00:16:06;;;;;;;7.45;3.75;;;13.40;99.90;;;;;;5085628;28;20060;-77
2022/11/02 00:18:35;;;;;;;4.50;2.23;;;13.50;99.90;;;;;;5085650;28;20036;-77
2022/11/02 00:21:02;;;;;;;9.98;2.25;;;13.40;99.90;;;;;;5090977;28;20024;-77
2022/11/02 00:23:28;;;;;;;3.80;1.98;;;13.50;99.90;;;;;;5107186;28;20091;-77
2022/11/02 00:25:55;;;;;;;8.98;1.30;;;13.40;99.90;;;;;;5107117;28;20035;-77
2022/11/02 00:28:21;;;;;;;7.57;2.80;;;13.40;99.90;;;;;;5093735;28;20032;-77
2022/11/02 00:30:47;;;;;;;3.65;1.90;;;13.40;99.90;;;;;;5085462;28;20031;-77
2022/11/02 00:33:13;;;;;;;2.90;2.15;;;13.40;99.90;;;;;;5086689;28;20092;-77
2022/11/02 00:35:40;;;;;;;7.07;3.10;;;13.30;99.90;;;;;;5085090;28;20033;-78
2022/11/02 00:38:06;;;;;;;9.55;2.45;;;13.30;99.90;;;;;;5102127;28;20028;-78
2022/11/02 00:40:31;;;;;;;8.27;1.92;;;13.30;99.90;;;;;;5089709;28;20035;-79
2022/11/02 00:42:58;;;;;;;5.22;1.77;;;13.30;99.90;;;;;;5106664;28;20020;-79
2022/11/02 00:45:24;;;;;;;4.15;1.63;;;13.30;99.90;;;;;;5088211;28;20050;-79
2022/11/02 00:47:50;;;;;;;7.30;3.05;;;13.20;99.90;;;;;;5105368;28;20020;-77
2022/11/02 00:50:18;;;;;;;5.63;2.65;;;13.20;99.90;;;;;;5072177;28;20028;-78
2022/11/02 00:52:44;;;;;;;2.20;1.42;;;13.20;99.90;;;;;;5088662;28;20024;-76
2022/11/02 00:55:10;;;;;;;12.23;2.60;;;13.30;99.90;;;;;;5101389;28;20374;-79
2022/11/02 00:57:40;;;;;;;4.25;2.20;;;13.20;99.90;;;;;;5084013;28;20078;-78
2022/11/02 01:00:11;;;;;;;7.13;2.88;;;13.20;99.90;;;;;;5084813;28;20044;-79
2022/11/02 01:02:37;;;;;;;2.25;1.55;;;13.20;99.90;;;;;;5084690;28;20044;-78
2022/11/02 01:05:04;;;;;;;3.63;1.77;;;13.20;99.90;;;;;;5067822;28;20092;-78
2022/11/02 01:07:30;;;;;;;3.58;1.33;;;13.20;99.90;;;;;;5084742;28;20025;-78
2022/11/02 01:09:56;;;;;;;8.68;1.80;;;13.10;99.90;;;;;;5084793;28;20016;-78
2022/11/02 01:12:22;;;;;;;6.85;1.85;;;13.10;99.90;;;;;;5051350;28;20051;-78
2022/11/02 01:14:48;;;;;;;5.65;1.73;;;13.10;99.90;;;;;;5085955;28;20474;-77
2022/11/02 01:17:15;;;;;;;3.03;2.13;;;13.00;99.90;;;;;;5062724;28;20032;-79
2022/11/02 01:19:41;;;;;;;5.60;1.88;;;13.00;99.90;;;;;;5087779;28;20044;-78
2022/11/02 01:22:07;;;;;;;2.58;1.20;;;12.90;99.90;;;;;;5091971;28;20040;-79
2022/11/02 01:24:34;;;;;;;8.20;2.95;;;12.90;99.90;;;;;;5085907;28;20059;-78
2022/11/02 01:27:01;;;;;;;8.20;2.08;;;12.80;99.90;;;;;;5085582;28;20020;-78
2022/11/02 01:29:27;;;;;;;13.18;1.98;;;12.70;99.90;;;;;;5084473;28;20033;-78
2022/11/02 01:31:53;;;;;;;4.85;1.85;;;12.70;99.90;;;;;;5075042;28;20024;-77
2022/11/02 01:34:20;;;;;;;4.35;2.38;;;12.70;99.90;;;;;;5084719;28;20037;-78
2022/11/02 01:36:46;;;;;;;5.00;1.98;;;12.60;99.90;;;;;;5101308;28;20538;-77
2022/11/02 01:39:13;;;;;;;6.47;2.20;;;12.60;99.90;;;;;;5067836;28;20041;-77
2022/11/02 01:41:40;;;;;;;4.18;1.15;;;12.60;99.90;;;;;;5084402;28;20047;-77
2022/11/02 01:44:30;;;;;;;11.50;1.83;;;12.60;99.90;;;;;;5068207;28;20071;-79
2022/11/02 01:47:22;;;;;;;8.98;3.03;;;12.60;99.90;;;;;;5084293;28;20025;-78
2022/11/02 01:49:53;;;;;;;6.13;1.88;;;12.60;99.90;;;;;;5064493;28;20028;-77
2022/11/02 01:52:27;;;;;;;3.72;1.45;;;12.60;99.90;;;;;;5085939;28;20028;-78
2022/11/02 01:55:05;;;;;;;6.45;2.00;;;12.60;99.90;;;;;;5085719;28;20036;-77
2022/11/02 01:57:34;;;;;;;4.00;0.75;;;12.70;99.90;;;;;;5085591;28;20389;-77
2022/11/02 02:00:20;;;;;;;6.47;1.35;;;12.70;99.90;;;;;;5097698;28;20085;-77
2022/11/02 02:03:03;;;;;;;6.03;1.83;;;12.70;99.90;;;;;;5092043;28;20045;-77
2022/11/02 02:05:32;;;;;;;5.35;2.25;;;12.80;99.90;;;;;;5067433;28;20024;-77
2022/11/02 02:07:59;;;;;;;9.95;2.47;;;12.80;99.90;;;;;;5084187;28;20029;-78
2022/11/02 02:10:25;;;;;;;5.65;1.25;;;12.90;99.90;;;;;;5086685;28;20439;-77
2022/11/02 02:12:51;;;;;;;3.80;1.42;;;12.80;99.90;;;;;;5071202;28;20029;-77
2022/11/02 02:15:26;;;;;;;3.13;1.73;;;12.80;99.90;;;;;;5087962;28;20096;-78
2022/11/02 02:18:10;;;;;;;3.83;2.25;;;12.70;99.90;;;;;;5102078;28;20024;-77
2022/11/02 02:21:23;;;;;;;11.43;1.75;;;12.80;99.90;;;;;;5108454;28;20032;-78
2022/11/02 02:24:00;;;;;;;7.15;1.73;;;12.70;99.90;;;;;;5013858;28;20316;-78
2022/11/02 02:26:32;;;;;;;4.18;2.13;;;12.70;99.90;;;;;;5085013;28;20124;-78
2022/11/02 02:29:04;;;;;;;8.88;2.40;;;12.70;99.90;;;;;;5087866;28;20031;-77
2022/11/02 02:31:45;;;;;;;4.38;1.75;;;12.60;99.90;;;;;;5108067;28;20043;-77
2022/11/02 02:34:34;;;;;;;2.85;2.13;;;12.60;99.90;;;;;;5108016;28;20028;-77
2022/11/02 02:37:05;;;;;;;8.98;1.60;;;12.50;99.90;;;;;;5108041;28;20032;-77
2022/11/02 02:39:53;;;;;;;14.60;2.53;;;12.50;99.90;;;;;;5109248;28;20038;-77
2022/11/02 02:42:48;;;;;;;6.97;1.58;;;12.50;99.90;;;;;;5107736;28;20032;-77
2022/11/02 02:45:26;;;;;;;1.70;1.60;;;12.40;99.90;;;;;;5088169;28;20059;-77
2022/11/02 02:48:06;;;;;;;9.55;0.75;;;12.50;99.90;;;;;;5090495;28;20016;-77
2022/11/02 02:50:36;;;;;;;;;;;12.40;99.90;;;;;;5091361;28;20024;-77
2022/11/02 02:53:05;;;;;;;4.57;1.85;;;12.50;99.90;;;;;;5105571;28;19908;-77
2022/11/02 02:55:37;;;;;;;2.58;1.35;;;12.40;99.90;;;;;;5090794;28;20538;-77
2022/11/02 02:58:05;;;;;;;2.95;1.20;;;12.50;99.90;;;;;;5107468;28;20082;-77
2022/11/02 03:00:34;;;;;;;5.35;1.80;;;12.40;99.90;;;;;;5090470;28;20067;-77
2022/11/02 03:03:03;;;;;;;;;;;12.40;99.90;;;;;;5090972;28;20056;-77
2022/11/02 03:05:35;;;;;;;1.88;1.67;;;12.40;99.90;;;;;;5108713;28;19912;-78
2022/11/02 03:08:09;;;;;;;5.03;1.80;;;12.40;99.90;;;;;;5106973;28;20500;-77
2022/11/02 03:10:52;;;;;;;6.65;2.40;;;12.40;99.90;;;;;;5107184;28;20027;-77
2022/11/02 03:13:49;;;;;;;4.78;2.22;;;12.40;99.90;;;;;;5106988;28;20020;-77
2022/11/02 03:16:36;;;;;;;3.45;1.23;;;12.40;99.90;;;;;;5089361;28;20451;-77
2022/11/02 03:19:28;;;;;;;5.53;1.88;;;12.40;99.90;;;;;;5108407;28;20028;-77
2022/11/02 03:21:59;;;;;;;6.05;1.92;;;12.40;99.90;;;;;;5101495;28;20024;-77
2022/11/02 03:24:33;;;;;;;4.60;1.92;;;12.30;99.90;;;;;;5106683;28;20062;-77
2022/11/02 03:27:17;;;;;;;8.77;1.98;;;12.30;99.90;;;;;;5090192;28;20031;-77
2022/11/02 03:30:06;;;;;;;20.23;2.30;;;12.30;99.90;;;;;;5106701;28;20392;-77
2022/11/02 03:32:59;;;;;;;4.78;1.88;;;12.20;99.90;;;;;;5106835;28;20031;-78
2022/11/02 03:35:55;;;;;;;7.95;2.75;;;12.20;99.90;;;;;;5088984;28;20115;-77
2022/11/02 03:38:35;;;;;;;2.08;1.70;;;12.20;99.90;;;;;;5106585;28;20035;-77
2022/11/02 03:41:03;;;;;;;11.88;2.65;;;12.20;99.90;;;;;;5106624;28;20031;-77
2022/11/02 03:43:34;;;;;;;10.27;3.00;;;12.30;99.90;;;;;;5089714;28;20150;-77
2022/11/02 03:46:04;;;;;;;4.32;1.65;;;12.30;99.90;;;;;;5106297;28;20028;-77
2022/11/02 03:48:40;;;;;;;5.97;3.75;;;12.20;99.90;;;;;;5106608;28;20020;-77
2022/11/02 03:51:11;;;;;;;8.65;3.33;;;12.20;99.90;;;;;;5085911;28;20020;-77
2022/11/02 03:53:55;;;;;;;9.50;2.53;;;12.20;99.90;;;;;;5086094;28;20080;-77
2022/11/02 03:56:32;;;;;;;11.82;4.40;;;12.20;99.90;;;;;;5086121;28;20029;-77
2022/11/02 03:58:58;;;;;;;8.70;2.42;;;12.30;99.90;;;;;;5085805;28;20031;-77
2022/11/02 04:01:26;;;;;;;14.23;2.28;;;12.40;99.90;;;;;;5069325;28;20031;-77
2022/11/02 04:03:52;;;;;;;5.07;1.52;;;12.40;99.90;;;;;;5085720;28;20041;-77
2022/11/02 04:06:18;;;;;;;6.90;1.50;;;12.40;99.90;;;;;;5069391;28;20032;-77
2022/11/02 04:08:47;;;;;;;4.70;1.63;;;12.30;99.90;;;;;;5085839;28;20382;-77
2022/11/02 04:19:26;;;;;;;10.70;2.17;;;12.10;99.90;;;;;;5085746;28;20054;-77
2022/11/02 04:19:45;;;;;;;7.72;2.03;;;12.00;99.90;;;;;;5101722;28;20028;-77
2022/11/02 04:25:19;;;;;;;4.70;2.67;;;11.90;99.90;;;;;;5085395;28;20036;-77
2022/11/02 04:28:11;;;;;;;7.88;3.40;;;11.80;99.90;;;;;;5084669;28;20041;-78
2022/11/02 04:30:49;;;;;;;6.80;2.33;;;11.90;99.90;;;;;;5086668;28;20060;-77
2022/11/02 04:33:32;;;;;;;4.65;1.92;;;11.90;99.90;;;;;;5090588;28;20024;-78
2022/11/02 04:36:06;;;;;;;3.83;2.15;;;11.90;99.90;;;;;;5105357;28;20059;-77
2022/11/02 04:38:39;;;;;;;10.48;3.40;;;12.00;99.90;;;;;;5088758;28;20090;-77
2022/11/02 04:43:56;;;;;;;4.38;1.77;;;12.20;99.90;;;;;;5105392;28;20036;-77
2022/11/02 04:46:24;;;;;;;7.70;2.97;;;12.30;99.90;;;;;;5105490;28;20388;-77
2022/11/02 04:48:50;;;;;;;8.38;3.08;;;12.20;99.90;;;;;;5092973;28;20028;-77
2022/11/02 04:51:17;;;;;;;12.48;2.85;;;12.20;99.90;;;;;;5084976;28;20029;-77
2022/11/02 04:53:43;;;;;;;10.65;2.65;;;12.10;99.90;;;;;;5086355;28;20055;-77
2022/11/02 04:56:09;;;;;;;8.77;2.50;;;12.00;99.90;;;;;;5084830;28;20029;-77
2022/11/02 04:58:35;;;;;;;8.93;2.50;;;12.00;99.90;;;;;;5084862;28;20067;-77
2022/11/02 05:01:13;;;;;;;8.05;2.63;;;12.00;99.90;;;;;;5084797;28;20393;-77
2022/11/02 05:03:39;;;;;;;14.10;3.38;;;11.90;99.90;;;;;;5077660;28;20570;-77
2022/11/02 05:06:08;;;;;;;4.63;1.80;;;11.90;99.90;;;;;;5068122;28;20482;-77
2022/11/02 05:08:35;;;;;;;4.40;1.88;;;11.90;99.90;;;;;;5101555;28;20032;-77
2022/11/02 05:11:01;;;;;;;9.10;1.35;;;11.90;99.90;;;;;;5084795;28;20116;-77
2022/11/02 05:13:28;;;;;;;6.28;2.17;;;11.80;99.90;;;;;;5068029;28;20020;-77
2022/11/02 05:15:58;;;;;;;5.22;3.35;;;11.80;99.90;;;;;;5084722;28;20035;-77
2022/11/02 05:18:25;;;;;;;11.05;2.80;;;11.80;99.90;;;;;;5097019;28;20028;-77
2022/11/02 05:20:53;;;;;;;8.52;2.45;;;11.70;99.90;;;;;;5105072;28;20058;-77
2022/11/02 05:23:23;;;;;;;8.02;2.78;;;11.70;99.90;;;;;;5088294;28;20029;-77
2022/11/02 05:25:57;;;;;;;10.27;2.90;;;11.70;99.90;;;;;;5084852;28;20386;-78
2022/11/02 05:28:25;;;;;;;3.17;1.52;;;11.70;99.90;;;;;;5084778;28;20382;-78
2022/11/02 05:30:51;;;;;;;10.57;1.95;;;11.70;99.90;;;;;;5067757;28;20024;-76
2022/11/02 05:33:17;;;;;;;9.40;2.25;;;11.70;99.90;;;;;;5093955;28;20092;-76
2022/11/02 05:35:43;;;;;;;9.02;3.25;;;11.70;99.90;;;;;;5085816;28;20031;-77
2022/11/02 05:38:10;;;;;;;13.48;1.90;;;11.80;99.90;;;;;;5084268;28;20043;-76
2022/11/02 05:40:39;;;;;;;12.80;2.95;;;11.80;99.90;;;;;;5067895;28;20033;-77
2022/11/02 05:43:08;;;;;;;7.15;2.33;;;11.80;99.90;;;;;;5084491;28;20028;-79
2022/11/02 05:45:35;;;;;;;10.88;1.73;;;11.70;99.90;;;;;;5089487;28;20073;-77
2022/11/02 05:48:02;;;;;;;2.78;1.10;;;11.70;99.90;;;;;;5090616;28;20091;-78
2022/11/02 05:50:29;;;;;;;6.07;2.25;;;11.70;99.90;;;;;;5077232;28;20032;-78
2022/11/02 05:52:55;;;;;;;8.27;1.88;;;11.70;99.90;;;;;;5072505;28;20013;-78
2022/11/02 05:55:21;;;;;;;11.48;1.75;;;11.60;99.90;;;;;;5087726;28;20044;-78
2022/11/02 05:57:52;;;;;;;9.35;3.15;;;11.70;99.90;;;;;;5089933;28;20025;-78
2022/11/02 06:00:19;;;;;;;7.97;2.38;;;11.60;99.90;;;;;;5093422;28;20020;-79
2022/11/02 06:02:46;;;;;;;14.65;4.03;;;11.70;99.90;;;;;;5089971;28;20071;-79
2022/11/02 06:05:12;;;;;;;8.45;2.88;;;11.70;99.90;;;;;;5104270;28;20029;-78
2022/11/02 06:07:38;;;;;;;6.28;1.83;;;11.80;99.90;;;;;;5087827;28;20055;-77
2022/11/02 06:10:04;;;;;;;8.32;2.38;;;11.80;99.90;;;;;;5104714;28;20021;-78
2022/11/02 06:12:30;;;;;;;10.73;2.58;;;11.80;99.90;;;;;;5104795;28;20028;-77
2022/11/02 06:14:56;;;;;;;6.57;3.40;;;11.70;99.90;;;;;;5089052;28;20032;-78
2022/11/02 06:17:21;;;;;;;7.15;2.75;;;11.70;99.90;;;;;;5087834;28;20495;-77
2022/11/02 06:19:47;;;;;;;8.65;2.97;;;11.60;99.90;;;;;;5103990;28;20096;-78
2022/11/02 06:22:13;;;;;;;6.40;1.88;;;11.60;99.90;;;;;;5089347;28;20040;-78
2022/11/02 06:24:38;;;;;;;4.80;2.70;;;11.50;99.90;;;;;;5077750;28;20044;-78
2022/11/02 06:27:04;;;;;;;12.77;2.67;;;11.50;99.90;;;;;;5103074;28;20024;-78
2022/11/02 06:29:31;;;;;;;4.65;2.80;;;11.50;99.90;;;;;;5093867;28;20035;-78
2022/11/02 06:31:57;;;;;;;7.65;1.50;;;11.40;99.90;;;;;;5087226;28;20012;-78
2022/11/02 06:34:23;;;;;;;3.95;1.83;;;11.40;99.90;;;;;;5087650;28;20040;-78
2022/11/02 06:36:48;;;;;;;5.15;2.05;;;11.40;99.90;;;;;;5088199;28;20100;-78
2022/11/02 06:39:14;;;;;;;10.77;3.60;;;11.40;99.90;;;;;;5059347;28;20028;-78
2022/11/02 06:41:40;;;;;;;4.45;2.95;;;11.40;99.90;;;;;;5089502;28;20222;-77
2022/11/02 06:44:06;;;;;;;10.13;1.88;;;11.40;99.90;;;;;;5077183;28;20028;-77
2022/11/02 06:46:32;;;;;;;7.22;2.15;;;11.30;99.90;;;;;;5095897;28;20029;-77
2022/11/02 06:48:58;;;;;;;6.20;2.40;;;11.30;99.90;;;;;;5086919;28;20043;-77
2022/11/02 06:51:24;;;;;;;2.70;1.83;;;11.30;99.90;;;;;;5087279;28;20096;-77
2022/11/02 06:53:49;;;;;;;7.65;1.52;;;11.30;99.90;;;;;;5103797;28;20510;-78
2022/11/02 06:56:15;;;;;;;8.13;2.92;;;11.30;99.90;;;;;;5081545;28;20062;-77
2022/11/02 06:58:41;;;;;;;9.50;2.20;;;11.30;99.90;;;;;;5107489;28;20032;-77
2022/11/02 07:01:07;;;;;;;3.53;3.22;;;11.40;99.90;;;;;;5090372;28;20472;-77
2022/11/02 07:03:34;;;;;;;5.63;2.70;;;11.40;99.90;;;;;;5090436;28;20129;-77
2022/11/02 07:06:01;;;;;;;3.15;1.80;;;11.40;99.90;;;;;;5107181;28;20039;-77
2022/11/02 07:08:28;;;;;;;8.68;3.45;;;11.40;99.90;;;;;;5109177;28;20021;-78
2022/11/02 07:10:54;;;;;;;12.15;2.28;;;11.50;99.90;;;;;;5107660;28;20051;-77
2022/11/02 07:13:20;;;;;;;7.47;2.38;;;11.50;99.90;;;;;;5086009;28;20021;-77
2022/11/02 07:15:46;;;;;;;2.78;1.92;;;11.60;99.90;;;;;;5107456;28;20032;-78
2022/11/02 07:18:13;;;;;;;3.88;2.13;;;11.70;99.90;;;;;;5108528;28;20031;-78
2022/11/02 07:20:38;;;;;;;15.35;4.70;;;11.70;99.90;;;;;;5090163;28;20038;-78
2022/11/02 07:23:05;;;;;;;11.68;3.55;;;11.80;99.90;;;;;;5108523;28;20059;-77
2022/11/02 07:25:32;;;;;;;14.63;2.08;;;11.70;99.90;;;;;;5089974;28;20062;-77
2022/11/02 07:27:59;;;;;;;9.50;3.53;;;11.80;99.90;;;;;;5105982;28;20024;-77
2022/11/02 07:30:29;;;;;;;3.72;2.22;;;12.00;99.90;;;;;;5107275;28;20024;-77
2022/11/02 07:32:56;;;;;;;5.50;2.38;;;12.40;99.90;;;;;;5106898;28;20028;-77
2022/11/02 07:35:21;;;;;;;9.60;3.17;;;13.00;99.90;;;;;;5089920;28;20042;-77
2022/11/02 07:38:00;;;;;;;10.43;3.08;;;13.70;99.90;;;;;;5108163;28;20073;-77
2022/11/02 07:40:27;;;;;;;8.90;2.90;;;14.50;99.90;;;;;;5108139;28;20047;-77
2022/11/02 07:42:53;;;;;;;5.80;2.33;;;14.80;99.90;;;;;;5104648;28;20036;-78
2022/11/02 07:45:22;;;;;;;7.38;1.95;;;15.50;99.90;;;;;;5089928;28;20046;-77
2022/11/02 07:47:49;;;;;;;6.32;2.75;;;16.60;99.90;;;;;;5107811;28;20024;-77
2022/11/02 07:50:17;;;;;;;5.28;2.00;;;17.30;99.90;;;;;;5106506;28;20059;-77
2022/11/02 07:52:47;;;;;;;12.32;2.78;;;18.30;99.90;;;;;;5089704;28;20028;-77
2022/11/02 07:55:18;;;;;;;13.38;2.88;;;18.60;99.90;;;;;;5106398;28;20104;-77
2022/11/02 07:58:00;;;;;;;4.45;2.58;;;19.20;99.90;;;;;;5089438;28;20058;-77
2022/11/02 08:00:29;;;;;;;6.45;3.70;;;19.90;99.90;;;;;;5086034;28;20052;-77
2022/11/02 08:02:56;;;;;;;4.95;1.70;;;20.20;99.90;;;;;;5087215;28;20052;-77
2022/11/02 08:05:23;;;;;;;9.00;2.05;;;20.60;99.90;;;;;;5069191;28;20047;-79
2022/11/02 08:08:04;;;;;;;6.20;2.05;;;20.90;99.90;;;;;;5068766;28;20044;-77
2022/11/02 08:10:31;;;;;;;7.97;2.60;;;21.30;99.90;;;;;;5086857;28;20533;-77
2022/11/02 08:12:57;;;;;;;5.13;1.90;;;21.50;99.90;;;;;;5088026;28;20029;-77
2022/11/02 08:15:23;;;;;;;7.32;2.53;;;21.90;99.90;;;;;;5085785;28;20043;-77
2022/11/02 08:18:04;;;;;;;5.63;1.42;;;21.60;99.90;;;;;;5087121;28;20390;-77
2022/11/02 08:20:31;;;;;;;8.40;2.28;;;21.60;99.90;;;;;;5086840;28;20028;-77
2022/11/02 08:22:57;;;;;;;8.98;2.28;;;21.10;99.90;;;;;;5086679;28;20362;-77
2022/11/02 08:25:23;;;;;;;5.80;2.30;;;22.00;99.90;;;;;;5085502;28;20123;-77
2022/11/02 08:27:49;;;;;;;7.30;2.63;;;22.50;99.50;;;;;;5086576;28;20028;-77
2022/11/02 08:30:15;;;;;;;11.48;3.20;;;22.10;99.50;;;;;;5085359;28;20063;-77
2022/11/02 08:32:41;;;;;;;6.03;2.80;;;22.10;99.60;;;;;;5085521;28;20036;-78
2022/11/02 08:35:07;;;;;;;4.63;2.58;;;22.40;99.50;;;;;;5085205;28;20067;-77
2022/11/02 08:37:32;;;;;;;9.45;2.75;;;21.60;99.90;;;;;;5086554;28;20025;-78
2022/11/02 08:39:58;;;;;;;2.95;1.55;;;21.10;99.90;;;;;;5085454;28;20051;-77
2022/11/02 08:42:24;;;;;;;9.57;2.58;;;22.00;99.70;;;;;;5103701;28;20393;-77
2022/11/02 08:44:51;;;;;;;7.13;1.67;;;22.50;99.20;;;;;;5088579;28;20020;-77
2022/11/02 08:47:17;;;;;;;7.55;1.58;;;20.20;99.90;;;;;;5088571;28;20048;-77
2022/11/02 08:49:43;;;;;;;11.63;2.78;;;19.40;99.90;;;;;;5088456;28;20026;-77
2022/11/02 08:52:09;;;;;;;9.70;2.13;;;20.60;99.90;;;;;;5106837;28;20016;-77
2022/11/02 08:54:35;;;;;;;6.05;1.55;;;21.00;99.90;;;;;;5106438;28;20024;-77
2022/11/02 08:57:01;;;;;;;5.75;2.15;;;22.00;99.90;;;;;;5088267;28;20048;-77
2022/11/02 08:59:26;;;;;;;5.28;1.92;;;22.10;99.70;;;;;;5085043;28;20029;-77
2022/11/02 09:01:52;;;;;;;10.60;1.75;;;22.60;99.30;;;;;;5068311;28;20071;-78
2022/11/02 09:04:18;;;;;;;6.95;2.78;;;23.10;98.80;;;;;;5068233;28;20089;-78
2022/11/02 09:06:43;;;;;;;8.85;2.25;;;22.80;98.90;;;;;;5068180;28;20021;-77
2022/11/02 09:09:09;;;;;;;5.22;2.00;;;23.70;98.30;;;;;;5086085;28;20050;-77
2022/11/02 09:11:35;;;;;;;7.22;2.20;;;23.60;98.30;;;;;;5086759;28;20562;-77
2022/11/02 09:14:01;;;;;;;6.90;2.20;;;23.40;98.20;;;;;;5085098;28;20043;-77
2022/11/02 09:16:27;;;;;;;14.55;4.30;;;24.10;97.70;;;;;;5085990;28;20043;-76
2022/11/02 09:18:53;;;;;;;9.88;2.72;;;24.40;97.60;;;;;;5083722;28;20107;-77
2022/11/02 09:21:19;;;;;;;15.60;3.55;;;24.20;97.30;;;;;;5084827;28;20025;-77
2022/11/02 09:23:47;;;;;;;10.65;3.20;;;23.90;97.40;;;;;;5051267;28;20032;-77
2022/11/02 09:26:18;;;;;;;9.98;3.15;;;23.30;98.10;;;;;;5085346;28;20032;-77
2022/11/02 09:28:44;;;;;;;8.98;3.65;;;23.90;97.50;;;;;;5087294;28;20086;-77
2022/11/02 09:31:10;;;;;;;4.68;1.73;;;24.60;97.60;;;;;;5104624;28;20024;-77
2022/11/02 09:33:35;;;;;;;9.38;2.85;;;25.70;96.50;;;;;;5106119;28;20031;-77
2022/11/02 09:36:04;;;;;;;12.43;2.53;;;25.80;96.40;;;;;;5106044;28;20024;-76
2022/11/02 09:38:30;;;;;;;7.15;2.45;;;25.60;96.20;;;;;;5104701;28;20028;-77
2022/11/02 09:40:58;;;;;;;6.30;2.63;;;26.00;96.10;;;;;;5104564;28;20040;-77
2022/11/02 09:43:43;;;;;;;7.40;2.15;;;26.00;95.80;;;;;;5104229;28;20032;-77
2022/11/02 09:46:32;;;;;;;6.22;2.13;;;26.20;95.70;;;;;;5087931;28;20028;-76
2022/11/02 09:49:23;;;;;;;10.85;2.92;;;25.30;96.20;;;;;;5087905;28;20143;-77
2022/11/02 09:51:55;;;;;;;9.30;3.78;;;24.50;96.30;;;;;;5105922;28;20092;-77
2022/11/02 09:54:35;;;;;;;3.20;1.13;;;25.30;96.00;;;;;;5104552;28;20108;-77
2022/11/02 09:57:09;;;;;;;3.80;1.88;;;25.50;95.20;;;;;;5104615;28;20051;-76
2022/11/02 09:59:35;;;;;;;6.32;2.08;;;24.60;95.90;;;;;;5099304;28;20498;-76
2022/11/02 10:02:09;;;;;;;12.18;2.13;;;24.10;96.50;;;;;;5105638;28;20052;-76
2022/11/02 10:05:14;;;;;;;6.63;2.78;;;23.80;96.60;;;;;;5104734;28;20032;-78
2022/11/02 10:08:01;;;;;;;7.93;2.28;;;23.10;97.60;;;;;;5104555;28;20044;-77
2022/11/02 10:10:38;;;;;;;9.70;2.10;;;23.10;97.40;;;;;;5104391;28;20377;-77
2022/11/02 10:13:06;;;;;;;7.60;2.60;;;23.30;97.00;;;;;;5104338;28;20032;-77
2022/11/02 10:15:38;;;;;;;12.82;2.50;;;23.60;97.10;;;;;;5105837;28;20038;-76
2022/11/02 10:18:10;;;;;;;5.28;1.38;;;23.80;96.70;;;;;;5085584;28;20028;-77
2022/11/02 10:20:54;;;;;;;5.65;2.58;;;23.30;97.20;;;;;;5085348;28;20033;-77
2022/11/02 10:23:34;;;;;;;7.13;2.40;;;23.80;96.70;;;;;;5096453;28;20108;-77
2022/11/02 10:26:01;;;;;;;;;;;23.60;96.70;;;;;;5105674;28;20036;-77
2022/11/02 10:28:32;;;;;;;9.85;2.40;;;23.20;96.90;;;;;;5105333;28;19904;-77
2022/11/02 10:31:00;;;;;;;8.18;2.60;;;23.60;97.00;;;;;;5089157;28;20020;-77
2022/11/02 10:33:29;;;;;;;5.97;2.53;;;23.60;96.70;;;;;;5108152;28;20024;-77
2022/11/02 10:36:30;;;;;;;3.07;1.37;;;23.70;96.70;;;;;;5108067;28;20110;-77
2022/11/02 10:39:20;;;;;;;6.75;2.55;;;23.10;97.10;;;;;;5084431;28;20702;-77
2022/11/02 10:42:13;;;;;;;8.10;2.35;;;22.90;97.40;;;;;;5070727;28;20054;-77
2022/11/02 10:44:52;;;;;;;8.25;2.10;;;22.20;97.80;;;;;;5088951;28;20393;-77
2022/11/02 10:47:21;;;;;;;14.98;2.65;;;21.30;98.60;;;;;;5088545;28;20183;-77
2022/11/02 10:50:21;;;;;;;11.37;2.67;;;21.20;98.40;;;;;;5088773;28;20107;-77
2022/11/02 10:52:47;;;;;;;9.82;2.65;;;21.50;98.10;;;;;;5099228;28;20305;-77
2022/11/02 10:55:22;;;;;;;4.75;1.77;;;21.20;98.20;;;;;;5107607;28;20032;-77
2022/11/02 10:57:49;;;;;;;6.32;2.05;;;21.00;98.80;;;;;;5108952;28;20028;-77
2022/11/02 11:00:33;;;;;;;2.67;1.02;;;20.40;98.90;;;;;;5107667;28;20024;-77
2022/11/02 11:03:10;;;;;;;5.10;2.00;;;20.20;99.40;;;;;;5107500;28;20083;-77
2022/11/02 11:05:50;;;;;;;8.68;2.38;;;20.70;99.40;;;;;;5090368;28;20388;-77
2022/11/02 11:08:33;;;;;;;9.68;3.20;;;20.90;99.30;;;;;;5090045;28;20056;-77
2022/11/02 11:11:36;;;;;;;11.18;3.67;;;20.70;99.10;;;;;;5087354;28;20032;-76
2022/11/02 11:14:04;;;;;;;4.80;2.53;;;20.10;99.90;;;;;;5078711;28;20111;-77
2022/11/02 11:16:36;;;;;;;7.63;3.53;;;19.70;99.90;;;;;;5086928;28;20028;-77
2022/11/02 11:19:04;;;;;;;10.02;3.28;;;19.80;99.90;;;;;;5086836;28;20092;-77
2022/11/02 11:21:40;;;;;;;6.00;2.88;;;19.90;99.90;;;;;;5093636;28;20085;-76
2022/11/02 11:24:25;;;;;;;9.52;3.28;;;19.50;99.90;;;;;;5107129;28;20074;-76
2022/11/02 11:27:13;;;;;;;6.05;2.15;;;19.60;99.90;;;;;;5107268;28;20105;-77
2022/11/02 11:29:46;;;;;;;9.85;2.25;;;19.60;99.90;;;;;;5106891;28;20024;-77
2022/11/02 11:32:18;;;;;;;6.40;2.38;;;19.80;99.90;;;;;;5108285;28;20024;-77
2022/11/02 11:34:52;;;;;;;10.93;2.65;;;19.20;99.90;;;;;;5108088;28;20024;-77
2022/11/02 11:37:18;;;;;;;15.75;2.30;;;18.80;99.90;;;;;;5086309;28;20035;-77
2022/11/02 11:39:49;;;;;;;5.18;2.38;;;18.60;99.90;;;;;;5087841;28;20026;-77
2022/11/02 11:42:21;;;;;;;6.28;2.25;;;18.30;99.90;;;;;;5068775;28;20043;-77
2022/11/02 11:45:12;;;;;;;25.00;4.18;;;18.10;99.90;;;;;;5086191;28;20051;-77
2022/11/02 11:47:41;;;;;;;8.13;2.65;;;17.80;99.90;;;;;;5086345;28;20096;-77
2022/11/02 11:50:14;;;;;;;5.78;1.90;;;17.20;99.90;;;;;;5087610;28;20028;-77
2022/11/02 11:52:40;;;;;;;8.10;3.20;;;17.00;99.90;;;;;;5107030;28;20028;-77
2022/11/02 11:55:30;;;;;;;6.70;2.30;;;17.00;99.90;;;;;;5106356;28;20032;-77
2022/11/02 11:58:18;;;;;;;12.20;2.35;;;17.00;99.90;;;;;;5106309;28;20028;-77
2022/11/02 12:00:44;;;;;;;6.85;1.98;;;17.10;99.90;;;;;;5107823;28;20039;-77
2022/11/02 12:03:12;;;;;;;14.90;2.20;;;17.00;99.90;;;;;;5089144;28;20517;-77
2022/11/02 12:06:19;;;;;;;9.18;2.65;;;17.30;99.90;;;;;;5101098;28;20021;-77
2022/11/02 12:09:06;;;;;;;10.43;3.17;;;17.50;99.90;;;;;;5090923;28;20028;-77
2022/11/02 12:11:56;;;;;;;5.15;2.05;;;17.60;99.90;;;;;;5106199;28;20027;-76
2022/11/02 12:14:22;;;;;;;6.47;3.30;;;18.10;99.90;;;;;;5105875;28;20051;-77
2022/11/02 12:16:59;;;;;;;8.48;2.40;;;18.80;99.90;;;;;;5106224;28;20092;-77
2022/11/02 12:19:44;;;;;;;5.55;2.05;;;18.90;99.90;;;;;;5106192;28;20088;-77
2022/11/02 12:22:34;;;;;;;5.65;3.03;;;18.90;99.90;;;;;;5086927;28;20033;-77
2022/11/02 12:25:06;;;;;;;6.22;2.92;;;18.60;99.90;;;;;;5085539;28;20036;-77
2022/11/02 12:28:02;;;;;;;6.78;3.50;;;18.50;99.90;;;;;;5068947;28;20057;-77
2022/11/02 12:30:59;;;;;;;10.98;2.70;;;18.30;99.90;;;;;;5085679;28;20032;-76
2022/11/02 12:33:43;;;;;;;12.20;2.70;;;18.60;99.90;;;;;;5085651;28;20028;-76
2022/11/02 12:36:10;;;;;;;12.85;3.03;;;18.80;99.90;;;;;;5097315;28;20028;-77
2022/11/02 12:39:10;;;;;;;9.40;2.05;;;19.20;99.90;;;;;;5106037;28;20020;-77
2022/11/02 12:42:04;;;;;;;3.20;1.55;;;18.90;99.90;;;;;;5105358;28;20491;-77
2022/11/02 12:45:00;;;;;;;13.93;2.38;;;19.00;99.90;;;;;;5088526;28;20051;-77
2022/11/02 12:47:38;;;;;;;5.97;2.15;;;18.00;99.90;;;;;;5106758;28;20057;-77
2022/11/02 12:50:13;;;;;;;5.72;1.33;;;17.90;99.90;;;;;;5100058;28;20123;-76
2022/11/02 12:52:57;;;;;;;8.73;3.03;;;17.80;99.90;;;;;;5085173;28;20032;-76
2022/11/02 12:55:41;;;;;;;6.20;1.77;;;17.80;99.90;;;;;;5084959;28;20099;-77
2022/11/02 12:58:19;;;;;;;8.63;3.00;;;17.70;99.90;;;;;;5086053;28;20513;-77
2022/11/02 13:00:50;;;;;;;23.33;2.35;;;18.10;99.90;;;;;;5085170;28;20037;-77
2022/11/02 13:03:28;;;;;;;3.70;2.08;;;18.20;99.90;;;;;;5084874;28;20047;-76
2022/11/02 13:06:01;;;;;;;8.82;2.25;;;18.10;99.90;;;;;;5098789;28;20035;-77
2022/11/02 13:09:04;;;;;;;6.78;1.80;;;18.00;99.90;;;;;;5105419;28;20035;-77
2022/11/02 13:11:36;;;;;;;7.10;3.00;;;18.00;99.90;;;;;;5074579;28;20097;-77
2022/11/02 13:14:05;;;;;;;7.60;2.72;;;17.80;99.90;;;;;;5088127;28;20020;-78
2022/11/02 13:16:49;;;;;;;10.43;4.07;;;17.70;99.90;;;;;;5104888;28;20074;-77
2022/11/02 13:19:22;;;;;;;10.07;3.47;;;17.50;99.90;;;;;;5102234;28;20090;-77
2022/11/02 13:21:55;;;;;;;4.82;2.20;;;17.30;99.90;;;;;;5086151;28;20039;-77
2022/11/02 13:24:38;;;;;;;3.75;1.90;;;17.30;99.90;;;;;;5084528;28;20215;-77